Sarasota Bradenton International Airport
KSRQ : rendu visible

Aérodrome :











RETROUVEZ-NOUS SUR...

 
LOGIN :

S'inscrire | Disclaimer

   EN    FR    IT 

 









Légende :    VFR   VFR Marginal   IFR   IFR Intensif   IFR Très Intensif
Visi : 
Plafond : 
>= 8 km
>= 3000ft
5 à 8 km
1000 à 3000 ft
1500m à 5 km
500 à 1000 ft
800 à 1500m
200 à 500 ft
< 800m
< 200 ft
Symboles :   Orages  Brouillard  Fortes neiges  Fortes précipitations  Vent > 20 kt






- Altitude de l'aérodrome : 30 ft
- Code IATA : SRQ


KSRQ - Sarasota Bradenton International

DERNIER METAR :
  • 161053Z AUTO 11006KT 10SM CLR 16/15 A3011 RMK AO2 SLP194 T01610150

METARs EXPIRÉS :
  • 160953Z AUTO 10006KT 10SM CLR 17/15 A3010 RMK AO2 SLP191 T01670150
  • 160853Z AUTO 10005KT 10SM CLR 16/14 A3011 RMK AO2 SLP194 T01610144 58004

TAF KSRQ
Valide du 16 à 06h jusqu'au 17 à 06h UTC


160527Z 1606/1706 11006KT P6SM SKC
FM161500 14011KT P6SM FEW030 SCT250
FM162000 19009KT P6SM FEW030 SCT250
FM162300 VRB04KT P6SM SCT030 SCT250



MET'MAP, la Météo Aéronautique d'un coup d'oeil ! - Copyright ORBIFLY Décembre 2007 - Disclaimer

ORBIFLY MET'MAP TEAM :

Programmation & Développement : Alexandra Zaïnal
Sur une idée originale de : Baudouin d'Aumeries
Assistance à la programmation : Marc-Olivier Méhu
Soutien technique & logistique : Manuel Goepfert

Contact : metmap@orbifly.com




SOURCES & CREDITS :

   NOAA       Earth
Advisory